Time;durP1;ratioP1;P1;durP2;ratioP2;P2;SDS_P1;SDS_P2;PMS_P1;PMS_P2;Temp;Humidity;BMP_temperature;BMP_pressure;BME280_temperature;BME280_humidity;BME280_pressure;Samples;Min_cycle;Max_cycle;Signal;HPM_P1;HPM_P2
2023/05/19 00:00:43;;;;;;;4.40;2.55;;;10.30;99.90;;;;;;5018038;28;20144;-80
2023/05/19 00:03:09;;;;;;;4.50;2.40;;;10.30;99.90;;;;;;5016569;28;20018;-78
2023/05/19 00:05:39;;;;;;;5.78;2.90;;;10.30;99.90;;;;;;5014058;28;20088;-80
2023/05/19 00:08:07;;;;;;;4.63;2.20;;;10.30;99.90;;;;;;5016859;28;20021;-80
2023/05/19 00:10:33;;;;;;;4.50;2.70;;;10.30;99.90;;;;;;5015846;28;20069;-80
2023/05/19 00:12:59;;;;;;;6.38;2.10;;;10.20;99.90;;;;;;5016864;28;20056;-80
2023/05/19 00:15:25;;;;;;;3.83;2.80;;;10.20;99.90;;;;;;5020083;28;20033;-80
2023/05/19 00:17:51;;;;;;;5.20;2.60;;;10.20;99.90;;;;;;5016834;28;20494;-80
2023/05/19 00:20:16;;;;;;;5.95;2.05;;;10.20;99.90;;;;;;5017139;28;20068;-81
2023/05/19 00:22:43;;;;;;;4.45;2.20;;;10.20;99.90;;;;;;5016029;28;21898;-81
2023/05/19 00:25:09;;;;;;;4.75;2.10;;;10.10;99.90;;;;;;5015668;28;20087;-80
2023/05/19 00:27:35;;;;;;;6.40;2.60;;;10.10;99.90;;;;;;5015816;28;20029;-81
2023/05/19 00:30:00;;;;;;;5.43;2.55;;;10.10;99.90;;;;;;5016466;28;20036;-81
2023/05/19 00:32:26;;;;;;;4.57;2.08;;;10.00;99.90;;;;;;5015054;28;20029;-81
2023/05/19 00:34:51;;;;;;;4.50;2.28;;;10.00;99.90;;;;;;5016044;28;20052;-80
2023/05/19 00:37:17;;;;;;;4.78;2.40;;;10.00;99.90;;;;;;5013313;28;20025;-81
2023/05/19 00:39:42;;;;;;;4.32;1.92;;;10.00;99.90;;;;;;5015956;28;20684;-81
2023/05/19 00:42:08;;;;;;;5.60;2.33;;;9.90;99.90;;;;;;5016310;28;20586;-81
2023/05/19 00:44:38;;;;;;;5.60;2.63;;;9.90;99.90;;;;;;5016076;28;20840;-82
2023/05/19 00:47:04;;;;;;;4.72;1.88;;;9.90;99.90;;;;;;5016921;28;20026;-81
2023/05/19 00:49:30;;;;;;;5.45;2.45;;;9.90;99.90;;;;;;5015804;28;20040;-79
2023/05/19 00:51:56;;;;;;;7.03;2.35;;;9.80;99.90;;;;;;5016669;28;20036;-81
2023/05/19 00:54:22;;;;;;;5.53;2.30;;;9.80;99.90;;;;;;5015731;28;20034;-79
2023/05/19 00:56:48;;;;;;;4.47;2.10;;;9.80;99.90;;;;;;5014795;28;20387;-80
2023/05/19 00:59:14;;;;;;;4.88;2.28;;;9.80;99.90;;;;;;5014961;28;20026;-81
2023/05/19 01:01:40;;;;;;;6.85;2.58;;;9.80;99.90;;;;;;5017256;28;20044;-80
2023/05/19 01:04:08;;;;;;;4.20;2.10;;;9.80;99.90;;;;;;5015007;28;20037;-80
2023/05/19 01:06:37;;;;;;;4.13;2.10;;;9.70;99.90;;;;;;5015077;28;20035;-79
2023/05/19 01:09:03;;;;;;;6.43;2.25;;;9.70;99.90;;;;;;5014844;28;20037;-80
2023/05/19 01:11:28;;;;;;;6.50;2.78;;;9.70;99.90;;;;;;5013961;28;20037;-80
2023/05/19 01:13:54;;;;;;;7.25;3.08;;;9.70;99.90;;;;;;5016339;28;20036;-80
2023/05/19 01:16:29;;;;;;;7.53;2.78;;;9.60;99.90;;;;;;5015759;28;20033;-80
2023/05/19 01:19:24;;;;;;;6.53;2.70;;;9.70;99.90;;;;;;5013922;28;20117;-80
2023/05/19 01:22:43;;;;;;;6.85;2.72;;;9.60;99.90;;;;;;5016089;28;20029;-81
2023/05/19 01:25:46;;;;;;;6.20;2.80;;;9.60;99.90;;;;;;4953935;28;20054;-80
2023/05/19 01:28:19;;;;;;;6.18;2.53;;;9.60;99.90;;;;;;4954823;28;20079;-80
2023/05/19 01:30:47;;;;;;;7.18;2.70;;;9.60;99.90;;;;;;5000691;28;20060;-79
2023/05/19 01:33:14;;;;;;;6.13;2.67;;;9.50;99.90;;;;;;5014626;28;20022;-79
2023/05/19 01:35:41;;;;;;;5.78;2.70;;;9.60;99.90;;;;;;5013442;28;20026;-80
2023/05/19 01:38:09;;;;;;;4.20;2.38;;;9.50;99.90;;;;;;5015273;28;20108;-81
2023/05/19 01:40:40;;;;;;;5.47;2.80;;;9.50;99.90;;;;;;5013720;28;20036;-81
2023/05/19 01:43:10;;;;;;;6.80;2.85;;;9.50;99.90;;;;;;5015575;28;20513;-80
2023/05/19 01:45:37;;;;;;;5.53;2.70;;;9.40;99.90;;;;;;5013348;28;20037;-79
2023/05/19 01:48:04;;;;;;;5.15;2.70;;;9.40;99.90;;;;;;5012584;28;20029;-80
2023/05/19 01:50:42;;;;;;;5.28;2.60;;;9.40;99.90;;;;;;5013991;28;20066;-80
2023/05/19 01:53:08;;;;;;;6.68;2.92;;;9.40;99.90;;;;;;5012499;28;20033;-80
2023/05/19 01:55:41;;;;;;;4.85;2.97;;;9.30;99.90;;;;;;5014426;28;20032;-79
2023/05/19 01:58:24;;;;;;;5.90;2.85;;;9.40;99.90;;;;;;5013683;28;20013;-80
2023/05/19 02:01:20;;;;;;;6.03;2.92;;;9.30;99.90;;;;;;5013696;28;20032;-79
2023/05/19 02:04:07;;;;;;;5.85;2.55;;;9.30;99.90;;;;;;5014578;28;20037;-80
2023/05/19 02:06:43;;;;;;;6.50;2.70;;;9.30;99.90;;;;;;5014025;28;20111;-80
2023/05/19 02:09:21;;;;;;;5.75;2.60;;;9.20;99.90;;;;;;5016248;28;20649;-81
2023/05/19 02:11:52;;;;;;;4.80;3.13;;;9.10;99.90;;;;;;5014349;28;20052;-80
2023/05/19 02:14:34;;;;;;;6.70;3.20;;;9.10;99.90;;;;;;5012926;28;20034;-80
2023/05/19 02:17:02;;;;;;;4.45;2.42;;;9.10;99.90;;;;;;5018348;28;20029;-80
2023/05/19 02:19:31;;;;;;;7.25;2.97;;;9.10;99.90;;;;;;5013770;28;20041;-80
2023/05/19 02:21:57;;;;;;;5.38;2.55;;;9.10;99.90;;;;;;5015149;28;20037;-80
2023/05/19 02:24:22;;;;;;;5.90;3.13;;;9.00;99.90;;;;;;5015184;28;20588;-80
2023/05/19 02:26:50;;;;;;;4.63;2.80;;;9.00;99.90;;;;;;5013435;28;20529;-80
2023/05/19 02:29:16;;;;;;;5.60;2.70;;;9.00;99.90;;;;;;5013319;28;20049;-80
2023/05/19 02:31:41;;;;;;;6.15;3.25;;;9.00;99.90;;;;;;5014085;28;20068;-80
2023/05/19 02:34:07;;;;;;;6.78;3.30;;;9.00;99.90;;;;;;5014564;28;20037;-79
2023/05/19 02:36:35;;;;;;;5.00;3.20;;;9.00;99.90;;;;;;5013513;28;20040;-79
2023/05/19 02:39:01;;;;;;;4.82;2.85;;;8.90;99.90;;;;;;5015475;28;20014;-79
2023/05/19 02:41:27;;;;;;;7.68;3.25;;;8.90;99.90;;;;;;5014754;28;20044;-81
2023/05/19 02:43:53;;;;;;;5.95;3.10;;;8.80;99.90;;;;;;5014055;28;20026;-80
2023/05/19 02:46:19;;;;;;;7.57;3.33;;;8.80;99.90;;;;;;5013259;28;20038;-80
2023/05/19 02:48:45;;;;;;;8.65;3.60;;;8.80;99.90;;;;;;5013438;28;20037;-79
2023/05/19 02:51:10;;;;;;;6.15;3.15;;;8.80;99.90;;;;;;5013868;28;20088;-81
2023/05/19 02:53:36;;;;;;;5.03;2.72;;;8.80;99.90;;;;;;5015020;28;20398;-79
2023/05/19 02:56:02;;;;;;;6.32;3.28;;;8.70;99.90;;;;;;5014608;28;20592;-81
2023/05/19 02:58:27;;;;;;;6.38;3.08;;;8.80;99.90;;;;;;5013084;28;20030;-81
2023/05/19 03:00:54;;;;;;;6.32;3.35;;;8.70;99.90;;;;;;5013606;28;20028;-80
2023/05/19 03:03:20;;;;;;;6.05;3.08;;;8.70;99.90;;;;;;5014338;28;20376;-79
2023/05/19 03:05:46;;;;;;;4.43;3.00;;;8.70;99.90;;;;;;5013355;28;20040;-81
2023/05/19 03:08:12;;;;;;;4.63;2.75;;;8.70;99.90;;;;;;5015032;28;20038;-81
2023/05/19 03:10:37;;;;;;;7.15;3.08;;;8.60;99.90;;;;;;5013642;28;20041;-80
2023/05/19 03:13:03;;;;;;;4.43;3.00;;;8.60;99.90;;;;;;5012604;28;20064;-80
2023/05/19 03:15:29;;;;;;;8.10;3.60;;;8.60;99.90;;;;;;5013295;28;20133;-80
2023/05/19 03:17:55;;;;;;;6.05;3.38;;;8.60;99.90;;;;;;5018180;28;20415;-81
2023/05/19 03:20:21;;;;;;;6.15;3.25;;;8.60;99.90;;;;;;5013450;28;20049;-81
2023/05/19 03:22:46;;;;;;;5.57;3.38;;;8.60;99.90;;;;;;5013727;28;20033;-80
2023/05/19 03:25:12;;;;;;;4.00;2.70;;;8.60;99.90;;;;;;5015707;28;20029;-79
2023/05/19 03:27:38;;;;;;;5.97;3.10;;;8.60;99.90;;;;;;5013416;28;20018;-80
2023/05/19 03:30:04;;;;;;;7.45;3.42;;;8.50;99.90;;;;;;5013336;28;20034;-80
2023/05/19 03:32:31;;;;;;;6.15;3.30;;;8.60;99.90;;;;;;5013617;28;20589;-81
2023/05/19 03:34:57;;;;;;;6.82;3.60;;;8.50;99.90;;;;;;5014118;28;20033;-80
2023/05/19 03:37:23;;;;;;;8.05;3.67;;;8.50;99.90;;;;;;5013427;28;20025;-81
2023/05/19 03:39:49;;;;;;;4.93;3.15;;;8.50;99.90;;;;;;5014892;28;20103;-80
2023/05/19 03:42:15;;;;;;;7.07;3.60;;;8.50;99.90;;;;;;5017223;28;20766;-81
2023/05/19 03:44:40;;;;;;;7.05;3.80;;;8.50;99.90;;;;;;5016658;28;20049;-79
2023/05/19 03:47:06;;;;;;;8.82;4.20;;;8.50;99.90;;;;;;5017217;28;20101;-79
2023/05/19 03:49:32;;;;;;;7.05;4.15;;;8.40;99.90;;;;;;5016987;28;20052;-80
2023/05/19 03:51:57;;;;;;;6.15;3.45;;;8.40;99.90;;;;;;5016738;28;20087;-80
2023/05/19 03:54:23;;;;;;;6.05;3.65;;;8.40;99.90;;;;;;5017812;28;20033;-80
2023/05/19 03:56:48;;;;;;;7.28;4.20;;;8.50;99.90;;;;;;5019813;28;20166;-80
2023/05/19 03:59:15;;;;;;;6.95;3.60;;;8.40;99.90;;;;;;5017265;28;20661;-81
2023/05/19 04:01:40;;;;;;;6.28;3.95;;;8.40;99.90;;;;;;5018271;28;20036;-80
2023/05/19 04:04:06;;;;;;;5.25;3.63;;;8.40;99.90;;;;;;5016485;28;20031;-81
2023/05/19 04:06:32;;;;;;;6.95;3.63;;;8.40;99.90;;;;;;5017022;28;20029;-81
2023/05/19 04:08:58;;;;;;;10.32;4.00;;;8.40;99.90;;;;;;5018319;28;20036;-80
2023/05/19 04:11:24;;;;;;;7.65;4.25;;;8.50;99.90;;;;;;5015364;28;20037;-79
2023/05/19 04:13:50;;;;;;;5.90;3.53;;;8.40;99.90;;;;;;5015646;28;20038;-80
2023/05/19 04:16:15;;;;;;;6.78;3.75;;;8.40;99.90;;;;;;5016071;28;20490;-81
2023/05/19 04:18:41;;;;;;;6.28;3.33;;;8.40;99.90;;;;;;5016300;28;20475;-80
2023/05/19 04:21:07;;;;;;;5.88;3.45;;;8.50;99.90;;;;;;5016162;28;20475;-78
2023/05/19 04:23:33;;;;;;;8.18;3.80;;;8.50;99.90;;;;;;5017315;28;20029;-80
2023/05/19 04:26:00;;;;;;;6.40;3.30;;;8.50;99.90;;;;;;5018637;28;20569;-80
2023/05/19 04:28:26;;;;;;;7.78;3.80;;;8.50;99.90;;;;;;5014561;28;20075;-79
2023/05/19 04:30:51;;;;;;;7.70;3.35;;;8.50;99.90;;;;;;5015829;28;20045;-79
2023/05/19 04:33:18;;;;;;;6.20;3.67;;;8.50;99.90;;;;;;5017083;28;20141;-79
2023/05/19 04:35:44;;;;;;;6.93;3.88;;;8.60;99.90;;;;;;5016392;28;20025;-80
2023/05/19 04:38:10;;;;;;;7.80;4.68;;;8.60;99.90;;;;;;5015030;28;20040;-80
2023/05/19 04:40:36;;;;;;;7.78;3.83;;;8.70;99.90;;;;;;5031075;28;20456;-81
2023/05/19 04:43:02;;;;;;;7.82;3.90;;;8.70;99.90;;;;;;5015266;28;20040;-79
2023/05/19 04:45:27;;;;;;;8.35;4.00;;;8.70;99.90;;;;;;5014526;28;20041;-80
2023/05/19 04:47:56;;;;;;;6.82;3.83;;;8.70;99.90;;;;;;5016358;28;20026;-79
2023/05/19 04:50:23;;;;;;;5.85;3.55;;;8.80;99.90;;;;;;5015775;28;20116;-79
2023/05/19 04:52:49;;;;;;;5.82;3.38;;;8.80;99.90;;;;;;5015180;28;20237;-80
2023/05/19 04:55:15;;;;;;;7.20;3.80;;;8.90;99.90;;;;;;5017541;28;20535;-79
2023/05/19 04:57:41;;;;;;;4.97;3.20;;;8.90;99.90;;;;;;5016107;28;20474;-81
2023/05/19 05:00:11;;;;;;;5.55;3.25;;;9.00;99.90;;;;;;5015842;28;20222;-80
2023/05/19 05:02:36;;;;;;;8.05;3.40;;;9.00;99.90;;;;;;5015872;28;20024;-81
2023/05/19 05:05:03;;;;;;;5.78;3.22;;;9.00;99.90;;;;;;5016859;28;20042;-79
2023/05/19 05:07:28;;;;;;;6.63;3.78;;;9.10;99.90;;;;;;5015748;28;20486;-83
2023/05/19 05:09:54;;;;;;;7.55;3.50;;;9.20;99.90;;;;;;5016595;28;20037;-79
2023/05/19 05:12:20;;;;;;;7.15;3.50;;;9.20;99.90;;;;;;5015862;28;20053;-80
2023/05/19 05:14:46;;;;;;;5.57;3.35;;;9.30;99.90;;;;;;5013658;28;20029;-80
2023/05/19 05:17:12;;;;;;;7.88;3.88;;;9.30;99.90;;;;;;5015884;28;20032;-80
2023/05/19 05:19:38;;;;;;;6.40;3.30;;;9.30;99.90;;;;;;5014770;28;20053;-81
2023/05/19 05:22:05;;;;;;;9.27;3.50;;;9.30;99.90;;;;;;5016361;28;20121;-81
2023/05/19 05:24:31;;;;;;;7.72;3.20;;;9.40;99.90;;;;;;5015041;28;20426;-81
2023/05/19 05:26:57;;;;;;;5.03;2.75;;;9.40;99.90;;;;;;5017475;28;20061;-80
2023/05/19 05:29:23;;;;;;;5.90;2.97;;;9.50;99.90;;;;;;5014975;28;20014;-81
2023/05/19 05:31:49;;;;;;;5.00;2.90;;;9.50;99.90;;;;;;5030674;28;20490;-81
2023/05/19 05:34:15;;;;;;;6.57;2.85;;;9.60;99.90;;;;;;5015974;28;20036;-80
2023/05/19 05:36:40;;;;;;;7.30;3.30;;;9.60;99.90;;;;;;5015011;28;20390;-81
2023/05/19 05:39:06;;;;;;;6.32;3.10;;;9.70;99.90;;;;;;5016129;28;20040;-81
2023/05/19 05:41:34;;;;;;;6.07;3.10;;;9.80;99.90;;;;;;5015944;28;20037;-82
2023/05/19 05:44:00;;;;;;;3.85;2.50;;;9.80;99.90;;;;;;5013577;28;20057;-81
2023/05/19 05:46:26;;;;;;;5.53;2.88;;;9.90;99.90;;;;;;5014395;28;20120;-81
2023/05/19 05:48:52;;;;;;;6.22;3.08;;;10.00;99.90;;;;;;5015216;28;20193;-81
2023/05/19 05:51:21;;;;;;;4.03;2.50;;;10.10;99.90;;;;;;5015294;28;20033;-80
2023/05/19 05:53:51;;;;;;;9.15;2.85;;;10.20;99.90;;;;;;5014702;28;20041;-81
2023/05/19 05:56:17;;;;;;;4.95;2.60;;;10.30;99.90;;;;;;5015244;28;20026;-81
2023/05/19 05:58:42;;;;;;;6.43;3.33;;;10.40;99.90;;;;;;5015391;28;20695;-81
2023/05/19 06:01:11;;;;;;;5.20;2.80;;;10.40;99.90;;;;;;5015369;28;20028;-80
2023/05/19 06:03:43;;;;;;;4.85;2.28;;;10.50;99.90;;;;;;5013980;28;20041;-80
2023/05/19 06:06:09;;;;;;;4.00;2.20;;;10.60;99.90;;;;;;5013662;28;20071;-82
2023/05/19 06:08:34;;;;;;;5.53;2.33;;;10.60;99.90;;;;;;5014336;28;20620;-81
2023/05/19 06:11:00;;;;;;;7.03;2.78;;;10.70;99.90;;;;;;5015056;28;20051;-80
2023/05/19 06:13:25;;;;;;;5.45;2.60;;;10.80;99.90;;;;;;5015577;28;20034;-76
2023/05/19 06:15:51;;;;;;;6.07;2.05;;;10.90;99.90;;;;;;5012889;28;20026;-77
2023/05/19 06:18:17;;;;;;;4.75;2.13;;;11.00;99.90;;;;;;5013326;28;20033;-77
2023/05/19 06:20:43;;;;;;;5.10;1.90;;;11.10;99.90;;;;;;5013766;28;20045;-77
2023/05/19 06:23:08;;;;;;;5.65;2.05;;;11.20;99.90;;;;;;5012004;28;20630;-77
2023/05/19 06:25:34;;;;;;;3.85;1.88;;;11.30;99.90;;;;;;5012610;28;20033;-81
2023/05/19 06:28:00;;;;;;;5.32;2.03;;;11.40;99.90;;;;;;5019208;28;20060;-82
2023/05/19 06:30:25;;;;;;;4.32;1.88;;;11.40;99.90;;;;;;5024867;28;20141;-81
2023/05/19 06:32:51;;;;;;;3.90;1.73;;;11.50;99.90;;;;;;5027346;28;20029;-83
2023/05/19 06:35:16;;;;;;;5.28;1.60;;;11.60;99.90;;;;;;5020967;28;20018;-81
2023/05/19 06:37:42;;;;;;;3.58;1.98;;;11.60;99.90;;;;;;5021223;28;20479;-82
2023/05/19 06:40:08;;;;;;;3.63;1.65;;;11.70;99.90;;;;;;5023411;28;20416;-84
2023/05/19 06:42:33;;;;;;;4.95;2.10;;;11.80;99.90;;;;;;5022160;28;20035;-82
2023/05/19 06:44:59;;;;;;;6.20;2.30;;;11.90;99.90;;;;;;5013205;28;20053;-82
2023/05/19 06:47:24;;;;;;;4.50;2.10;;;11.90;99.90;;;;;;5013581;28;20034;-83
2023/05/19 06:49:53;;;;;;;6.63;1.90;;;12.00;99.90;;;;;;5013425;28;20063;-81
2023/05/19 06:52:20;;;;;;;3.33;1.50;;;12.00;99.90;;;;;;5010593;28;20026;-81
2023/05/19 06:54:46;;;;;;;4.25;1.50;;;12.10;99.90;;;;;;5010208;28;20048;-81
2023/05/19 06:57:11;;;;;;;4.20;1.48;;;12.20;99.90;;;;;;5016314;28;20029;-83
2023/05/19 06:59:39;;;;;;;4.25;1.70;;;12.20;99.90;;;;;;5012086;28;20026;-84
2023/05/19 07:02:06;;;;;;;5.40;1.92;;;12.20;99.90;;;;;;5011824;28;20135;-80
2023/05/19 07:04:31;;;;;;;3.95;1.65;;;12.30;99.90;;;;;;5010962;28;20037;-80
2023/05/19 07:06:57;;;;;;;3.97;1.60;;;12.40;99.90;;;;;;5011727;28;20375;-81
2023/05/19 07:09:23;;;;;;;4.68;1.52;;;12.40;99.90;;;;;;5011355;28;20053;-80
2023/05/19 07:11:48;;;;;;;4.65;1.92;;;12.50;99.90;;;;;;5012308;28;20050;-81
2023/05/19 07:14:14;;;;;;;5.05;1.80;;;12.60;99.90;;;;;;5011738;28;20052;-82
2023/05/19 07:16:40;;;;;;;5.68;1.95;;;12.60;99.90;;;;;;5013679;28;20176;-83
2023/05/19 07:19:05;;;;;;;5.47;2.00;;;12.60;99.90;;;;;;5019330;28;20034;-82
2023/05/19 07:21:31;;;;;;;5.15;1.58;;;12.70;99.90;;;;;;5018587;28;20060;-84
2023/05/19 07:23:56;;;;;;;5.30;1.50;;;12.70;99.90;;;;;;5018550;28;20063;-82
2023/05/19 07:26:22;;;;;;;3.35;1.55;;;12.80;99.90;;;;;;5017980;28;20491;-83
2023/05/19 07:28:48;;;;;;;4.70;1.20;;;12.90;99.90;;;;;;5017609;28;20372;-83
2023/05/19 07:31:13;;;;;;;3.08;1.30;;;12.90;99.90;;;;;;5017928;28;20037;-82
2023/05/19 07:33:39;;;;;;;4.35;1.70;;;13.00;99.90;;;;;;5017273;28;20022;-84
2023/05/19 07:36:05;;;;;;;3.90;1.50;;;13.00;99.90;;;;;;5019523;28;20030;-82
2023/05/19 07:38:33;;;;;;;4.13;1.63;;;13.10;99.90;;;;;;5017855;28;20025;-83
2023/05/19 07:40:59;;;;;;;4.50;1.83;;;13.20;99.90;;;;;;5016548;28;20041;-83
2023/05/19 07:43:25;;;;;;;3.92;1.25;;;13.20;99.90;;;;;;5018597;28;20124;-83
2023/05/19 07:45:52;;;;;;;5.68;1.73;;;13.30;99.90;;;;;;5018096;28;20095;-83
2023/05/19 07:48:21;;;;;;;4.90;1.40;;;13.30;99.90;;;;;;5020751;28;20818;-85
2023/05/19 07:50:46;;;;;;;4.25;1.38;;;13.30;99.90;;;;;;5015868;28;20083;-85
2023/05/19 07:53:12;;;;;;;4.53;1.50;;;13.40;99.90;;;;;;5017861;28;20483;-84
2023/05/19 07:55:38;;;;;;;5.03;1.58;;;13.40;99.90;;;;;;5017249;28;20140;-83
2023/05/19 07:58:04;;;;;;;3.17;1.20;;;13.50;99.90;;;;;;5019020;28;20036;-83
2023/05/19 08:00:29;;;;;;;3.13;1.48;;;13.60;99.90;;;;;;5016293;28;20038;-82
2023/05/19 08:02:56;;;;;;;4.78;1.90;;;13.70;99.90;;;;;;5017133;28;20174;-84
2023/05/19 08:05:22;;;;;;;2.97;1.25;;;13.80;99.90;;;;;;5015923;28;20041;-81
2023/05/19 08:07:48;;;;;;;3.95;1.63;;;13.90;99.90;;;;;;5017588;28;20087;-81
2023/05/19 08:10:13;;;;;;;3.80;1.60;;;14.00;99.90;;;;;;5016854;28;20029;-81
2023/05/19 08:12:39;;;;;;;4.35;1.33;;;14.00;99.90;;;;;;5018296;28;20060;-80
2023/05/19 08:15:06;;;;;;;4.88;1.50;;;14.10;99.90;;;;;;5015630;28;20538;-82
2023/05/19 08:17:31;;;;;;;4.93;1.50;;;14.20;99.90;;;;;;5016962;28;20129;-83
2023/05/19 08:19:57;;;;;;;2.95;1.23;;;14.30;99.90;;;;;;5017375;28;20481;-84
2023/05/19 08:22:22;;;;;;;3.60;1.50;;;14.40;99.90;;;;;;5018276;28;20045;-84
2023/05/19 08:24:50;;;;;;;4.15;1.70;;;14.50;99.90;;;;;;5018890;28;20039;-81
2023/05/19 08:27:16;;;;;;;2.75;1.00;;;14.60;99.90;;;;;;5015962;28;20120;-82
2023/05/19 08:29:41;;;;;;;4.00;1.80;;;14.70;99.90;;;;;;5016091;28;20021;-82
2023/05/19 08:32:07;;;;;;;4.35;1.45;;;14.80;99.90;;;;;;5016052;28;20396;-83
2023/05/19 08:34:33;;;;;;;4.85;1.70;;;14.90;99.90;;;;;;5014596;28;20112;-81
2023/05/19 08:36:59;;;;;;;3.38;1.40;;;15.00;99.90;;;;;;5015777;28;20029;-79
2023/05/19 08:39:27;;;;;;;4.00;1.20;;;15.10;99.90;;;;;;5016732;28;20679;-81
2023/05/19 08:41:53;;;;;;;5.53;1.50;;;15.20;99.90;;;;;;5019477;28;20048;-81
2023/05/19 08:44:19;;;;;;;4.35;1.50;;;15.30;99.90;;;;;;5015161;28;20045;-80
2023/05/19 08:46:46;;;;;;;5.60;1.63;;;15.30;99.90;;;;;;5015505;28;20044;-82
2023/05/19 08:49:14;;;;;;;3.70;1.33;;;15.30;99.90;;;;;;5015933;28;20022;-82
2023/05/19 08:51:54;;;;;;;4.60;1.38;;;15.40;99.90;;;;;;5016200;28;20045;-83
2023/05/19 08:54:29;;;;;;;3.83;1.10;;;15.50;99.90;;;;;;5014018;28;20083;-81
2023/05/19 08:56:54;;;;;;;3.42;0.85;;;15.50;99.90;;;;;;5013612;28;20052;-82
2023/05/19 08:59:21;;;;;;;3.45;1.15;;;15.60;99.90;;;;;;5017421;28;20029;-81
2023/05/19 09:01:47;;;;;;;4.70;1.38;;;15.70;99.90;;;;;;5013752;28;20562;-82
2023/05/19 09:04:14;;;;;;;4.70;1.25;;;15.80;99.90;;;;;;5014256;28;20029;-80
2023/05/19 09:06:41;;;;;;;5.45;1.33;;;16.00;99.90;;;;;;5012657;28;20427;-81
2023/05/19 09:09:07;;;;;;;6.20;1.38;;;16.10;99.90;;;;;;5018710;28;20030;-81
2023/05/19 09:11:34;;;;;;;3.65;0.90;;;16.20;99.90;;;;;;5012266;28;20060;-81
2023/05/19 09:14:00;;;;;;;3.72;1.02;;;16.30;99.90;;;;;;5012880;28;20026;-82
2023/05/19 09:16:25;;;;;;;6.93;1.00;;;16.50;99.90;;;;;;5014705;28;20056;-82
2023/05/19 09:18:55;;;;;;;4.03;1.17;;;16.60;99.90;;;;;;5013205;28;20045;-81
2023/05/19 09:21:29;;;;;;;4.68;1.00;;;16.70;99.90;;;;;;5012876;28;20052;-81
2023/05/19 09:23:56;;;;;;;4.22;1.25;;;16.70;99.90;;;;;;5015027;28;20034;-82
2023/05/19 09:26:22;;;;;;;3.25;0.93;;;16.70;99.90;;;;;;5011620;28;20481;-83
2023/05/19 09:28:48;;;;;;;4.00;1.00;;;16.90;99.90;;;;;;5013777;28;20026;-80
2023/05/19 09:31:13;;;;;;;3.55;1.00;;;17.30;99.90;;;;;;5013576;28;20033;-82
2023/05/19 09:33:41;;;;;;;3.08;0.90;;;18.30;99.90;;;;;;5011311;28;20076;-83
2023/05/19 09:36:07;;;;;;;8.05;1.10;;;19.50;99.90;;;;;;5013076;28;20029;-83
2023/05/19 09:38:38;;;;;;;7.47;1.17;;;20.60;99.90;;;;;;5013218;28;20034;-84
2023/05/19 09:41:05;;;;;;;3.35;1.00;;;21.50;99.90;;;;;;5012951;28;20072;-84
2023/05/19 09:43:32;;;;;;;3.15;0.98;;;22.20;99.90;;;;;;5013396;28;20091;-85
2023/05/19 09:46:06;;;;;;;2.40;0.70;;;22.80;99.90;;;;;;5012170;28;20037;-83
2023/05/19 09:48:33;;;;;;;4.30;1.10;;;23.50;99.50;;;;;;5013391;28;20084;-82
2023/05/19 09:51:00;;;;;;;3.10;1.00;;;24.00;98.80;;;;;;5013790;28;20480;-82
2023/05/19 09:53:25;;;;;;;4.38;1.00;;;24.30;98.10;;;;;;5011812;28;20057;-84
2023/05/19 09:55:58;;;;;;;4.18;1.00;;;24.70;96.90;;;;;;5011847;28;20188;-81
2023/05/19 09:58:25;;;;;;;3.23;0.93;;;24.90;96.30;;;;;;5012256;28;20608;-82
2023/05/19 10:00:51;;;;;;;4.03;0.90;;;24.90;94.60;;;;;;5012212;28;20022;-83
2023/05/19 10:03:17;;;;;;;2.08;0.85;;;24.90;94.50;;;;;;5012343;28;20029;-86
2023/05/19 10:05:43;;;;;;;2.92;0.90;;;25.10;94.30;;;;;;5014528;28;20037;-84
2023/05/19 10:08:11;;;;;;;2.03;0.70;;;25.20;94.20;;;;;;5011943;28;20031;-84
2023/05/19 10:10:37;;;;;;;1.85;0.80;;;25.40;94.00;;;;;;5026432;28;20060;-83
2023/05/19 10:13:04;;;;;;;2.40;0.70;;;25.60;93.60;;;;;;5012771;28;20924;-83
2023/05/19 10:15:30;;;;;;;2.90;0.90;;;25.80;93.30;;;;;;5008315;28;20053;-85
2023/05/19 10:17:56;;;;;;;2.97;0.90;;;25.90;92.60;;;;;;5012707;28;20032;-83
2023/05/19 10:20:21;;;;;;;3.30;1.17;;;26.10;92.50;;;;;;5012358;28;20033;-83
2023/05/19 10:22:47;;;;;;;3.17;1.05;;;26.30;91.40;;;;;;5020294;28;20397;-82
2023/05/19 10:25:14;;;;;;;3.88;1.13;;;26.10;90.70;;;;;;5012786;28;20435;-82
2023/05/19 10:28:06;;;;;;;2.95;1.00;;;26.10;91.10;;;;;;5010857;28;22356;-82
2023/05/19 10:30:35;;;;;;;2.05;0.77;;;26.40;90.70;;;;;;5006144;28;20053;-82
2023/05/19 10:33:03;;;;;;;4.15;1.20;;;26.40;90.70;;;;;;5013100;28;20108;-83
2023/05/19 10:35:54;;;;;;;5.82;1.33;;;26.40;89.70;;;;;;5011390;28;20045;-83
2023/05/19 10:38:55;;;;;;;3.45;1.02;;;26.20;88.60;;;;;;5012995;28;20035;-83
2023/05/19 10:41:52;;;;;;;2.83;1.23;;;26.10;89.20;;;;;;5010095;28;20541;-83
2023/05/19 10:44:57;;;;;;;3.40;1.25;;;26.10;89.50;;;;;;5009019;28;20065;-80
2023/05/19 10:47:27;;;;;;;4.80;1.02;;;26.20;88.90;;;;;;5012611;28;20038;-80
2023/05/19 10:49:53;;;;;;;4.30;1.00;;;26.40;88.10;;;;;;5012482;28;20476;-82
2023/05/19 10:52:29;;;;;;;5.03;0.98;;;26.60;87.00;;;;;;5018662;28;20036;-83
2023/05/19 10:54:57;;;;;;;2.63;0.88;;;26.70;85.10;;;;;;5018308;28;20041;-80
2023/05/19 10:57:31;;;;;;;4.50;1.27;;;26.40;85.40;;;;;;5018041;28;20061;-81
2023/05/19 10:59:58;;;;;;;2.50;0.90;;;26.10;86.00;;;;;;5019112;28;20021;-81
2023/05/19 11:02:41;;;;;;;3.65;1.13;;;26.00;86.20;;;;;;5018262;28;20565;-82
2023/05/19 11:05:08;;;;;;;3.40;1.13;;;26.10;86.00;;;;;;5016259;28;20030;-83
2023/05/19 11:07:34;;;;;;;3.47;0.98;;;26.30;85.90;;;;;;5018108;28;20029;-80
2023/05/19 11:10:05;;;;;;;2.25;1.00;;;26.60;84.80;;;;;;5018045;28;20148;-81
2023/05/19 11:12:40;;;;;;;4.05;1.10;;;26.50;83.70;;;;;;5033103;28;20111;-81
2023/05/19 11:15:10;;;;;;;4.20;1.10;;;26.40;82.00;;;;;;5016713;28;20041;-81
2023/05/19 11:17:35;;;;;;;3.60;0.80;;;26.40;81.80;;;;;;5016677;28;20369;-81
2023/05/19 11:20:01;;;;;;;3.15;0.85;;;26.60;83.00;;;;;;5017705;28;20656;-81
2023/05/19 11:22:27;;;;;;;3.17;0.90;;;26.90;82.90;;;;;;5014453;28;20056;-83
2023/05/19 11:24:56;;;;;;;3.85;1.10;;;27.10;82.10;;;;;;5017750;28;20108;-82
2023/05/19 11:27:37;;;;;;;3.03;1.10;;;27.30;81.20;;;;;;5018243;28;20087;-82
2023/05/19 11:30:06;;;;;;;4.22;0.75;;;27.40;81.00;;;;;;5017537;28;20503;-81
2023/05/19 11:32:33;;;;;;;4.35;2.22;;;27.60;81.80;;;;;;5017775;28;20033;-80
2023/05/19 11:34:59;;;;;;;3.17;1.90;;;27.90;81.30;;;;;;5017363;28;20041;-80
2023/05/19 11:37:27;;;;;;;3.35;1.17;;;28.20;80.80;;;;;;5016946;28;20486;-81
2023/05/19 11:39:53;;;;;;;2.90;1.17;;;28.40;80.00;;;;;;5018546;28;20026;-81
2023/05/19 11:42:19;;;;;;;3.17;1.00;;;28.40;78.90;;;;;;5018206;28;20085;-81
2023/05/19 11:44:45;;;;;;;2.53;1.10;;;28.40;79.80;;;;;;5017776;28;20033;-81
2023/05/19 11:47:12;;;;;;;4.40;1.17;;;28.70;79.30;;;;;;5017108;28;20476;-79
2023/05/19 11:49:38;;;;;;;3.50;0.98;;;28.70;80.10;;;;;;5015872;28;20383;-79
2023/05/19 11:52:04;;;;;;;2.85;0.90;;;28.70;78.90;;;;;;5019440;28;20021;-81
2023/05/19 11:54:31;;;;;;;4.20;1.10;;;28.80;78.50;;;;;;5032677;28;20038;-80
2023/05/19 11:57:00;;;;;;;3.13;1.20;;;29.00;78.70;;;;;;5015840;28;20391;-81
2023/05/19 11:59:31;;;;;;;2.80;1.05;;;29.20;78.50;;;;;;5016072;28;20076;-80
2023/05/19 12:01:57;;;;;;;3.03;1.00;;;29.40;77.10;;;;;;5017752;28;20022;-80
2023/05/19 12:04:22;;;;;;;2.70;0.82;;;29.50;78.10;;;;;;5013241;28;20033;-82
2023/05/19 12:06:48;;;;;;;4.90;0.90;;;29.80;77.10;;;;;;5015049;28;20138;-82
2023/05/19 12:09:14;;;;;;;2.53;0.80;;;29.90;76.30;;;;;;5016129;28;20032;-82
2023/05/19 12:11:40;;;;;;;2.78;1.00;;;29.80;76.00;;;;;;5013253;28;20041;-82
2023/05/19 12:14:07;;;;;;;2.42;0.90;;;29.90;76.40;;;;;;5014269;28;20046;-80
2023/05/19 12:16:35;;;;;;;3.47;0.95;;;29.80;75.70;;;;;;5012976;28;20065;-82
2023/05/19 12:19:04;;;;;;;3.45;1.00;;;30.00;75.50;;;;;;5014373;28;20506;-82
2023/05/19 12:21:30;;;;;;;3.17;0.98;;;30.10;74.90;;;;;;5015316;28;20037;-81
2023/05/19 12:23:56;;;;;;;3.72;1.25;;;29.90;74.60;;;;;;5015131;28;20052;-80
2023/05/19 12:26:22;;;;;;;3.85;1.15;;;29.90;75.40;;;;;;5012002;28;20025;-81
2023/05/19 12:28:49;;;;;;;4.60;1.20;;;30.10;76.20;;;;;;5013585;28;20029;-84
2023/05/19 12:31:16;;;;;;;3.40;1.02;;;30.00;77.30;;;;;;5013486;28;20033;-82
2023/05/19 12:33:42;;;;;;;3.47;1.10;;;29.70;76.90;;;;;;5013835;28;20112;-81
2023/05/19 12:36:08;;;;;;;3.75;1.00;;;29.90;75.30;;;;;;5014618;28;20043;-82
2023/05/19 12:38:36;;;;;;;3.78;1.30;;;29.80;74.00;;;;;;5015286;28;20033;-82
2023/05/19 12:41:02;;;;;;;5.95;1.30;;;29.80;73.20;;;;;;5014045;28;20017;-81
2023/05/19 12:43:27;;;;;;;2.38;1.00;;;29.80;72.00;;;;;;5014219;28;20052;-85
2023/05/19 12:45:53;;;;;;;4.45;1.10;;;30.00;73.90;;;;;;5015631;28;20034;-84
2023/05/19 12:48:21;;;;;;;2.90;1.33;;;29.90;73.00;;;;;;5016027;28;20068;-83
2023/05/19 12:50:48;;;;;;;3.50;1.00;;;29.80;73.90;;;;;;5015982;28;20037;-84
2023/05/19 12:53:14;;;;;;;2.95;1.20;;;29.90;74.90;;;;;;5015999;28;20108;-83